createdAt,value
2022-10-02T00:01:55.719Z,101048.13
2022-10-02T00:05:02.560Z,101051.50
2022-10-02T00:08:39.902Z,101049.88
2022-10-02T00:11:48.387Z,101049.81
2022-10-02T00:14:54.334Z,101046.31
2022-10-02T00:18:01.471Z,101044.66
2022-10-02T00:21:41.744Z,101048.13
2022-10-02T00:24:50.409Z,101050.72
2022-10-02T00:28:12.349Z,101040.09
2022-10-02T00:31:22.903Z,101047.53
2022-10-02T00:34:42.183Z,101059.63
2022-10-02T00:37:52.770Z,101059.63
2022-10-02T00:41:09.323Z,101051.88
2022-10-02T00:45:00.140Z,101056.56
2022-10-02T00:48:29.824Z,101052.59
2022-10-02T00:51:52.223Z,101046.91
2022-10-02T00:55:08.503Z,101055.56
2022-10-02T00:58:28.788Z,101050.47
2022-10-02T01:01:49.182Z,101054.78
2022-10-02T01:04:50.601Z,101057.31
2022-10-02T01:07:53.965Z,101061.56
2022-10-02T01:10:55.234Z,101059.03
2022-10-02T01:13:57.505Z,101068.22
2022-10-02T01:16:59.020Z,101066.56
2022-10-02T01:20:03.641Z,101069.06
2022-10-02T01:23:23.446Z,101075.34
2022-10-02T01:26:24.782Z,101088.09
2022-10-02T01:29:26.169Z,101112.94
2022-10-02T01:32:28.411Z,101137.63
2022-10-02T01:35:33.498Z,101136.16
2022-10-02T01:38:35.626Z,101142.53
2022-10-02T01:41:43.128Z,101146.59
2022-10-02T01:44:45.541Z,101142.13
2022-10-02T01:47:57.239Z,101148.97
2022-10-02T01:51:10.011Z,101153.28
2022-10-02T01:54:17.360Z,101148.19
2022-10-02T01:57:21.703Z,101136.19
2022-10-02T02:00:24.611Z,101148.34
2022-10-02T02:04:04.637Z,101141.09
2022-10-02T02:07:42.185Z,101145.63
2022-10-02T02:10:51.848Z,101148.44
2022-10-02T02:14:11.665Z,101145.38
2022-10-02T02:17:22.568Z,101140.56
2022-10-02T02:20:36.435Z,101132.63
2022-10-02T02:23:41.233Z,101142.59
2022-10-02T02:26:44.913Z,101141.28
2022-10-02T02:29:50.106Z,101141.47
2022-10-02T02:32:55.904Z,101141.75
2022-10-02T02:36:03.764Z,101149.56
2022-10-02T02:39:11.995Z,101142.72
2022-10-02T02:42:18.166Z,101142.59
2022-10-02T02:45:24.957Z,101141.47
2022-10-02T02:48:31.221Z,101131.78
2022-10-02T02:51:37.906Z,101131.50
2022-10-02T02:54:50.217Z,101138.91
2022-10-02T02:58:12.862Z,101149.09
2022-10-02T03:01:14.382Z,101145.38
2022-10-02T03:04:15.789Z,101142.69
2022-10-02T03:07:17.574Z,101132.28
2022-10-02T03:10:28.490Z,101132.22
2022-10-02T03:13:57.322Z,101128.66
2022-10-02T03:17:08.043Z,101126.16
2022-10-02T03:20:40.530Z,101131.56
2022-10-02T03:23:56.362Z,101139.47
2022-10-02T03:27:07.051Z,101132.69
2022-10-02T03:30:11.452Z,101126.81
2022-10-02T03:33:15.927Z,101130.44
2022-10-02T03:36:17.646Z,101125.38
2022-10-02T03:39:26.458Z,101135.97
2022-10-02T03:42:31.973Z,101124.06
2022-10-02T03:45:50.549Z,101127.53
2022-10-02T03:48:52.535Z,101123.41
2022-10-02T03:51:53.937Z,101120.91
2022-10-02T03:55:13.072Z,101117.69
2022-10-02T03:58:16.707Z,101125.50
2022-10-02T04:01:26.884Z,101124.75
2022-10-02T04:04:40.304Z,101129.97
2022-10-02T04:07:50.253Z,101130.94
2022-10-02T04:11:00.912Z,101129.31
2022-10-02T04:14:35.156Z,101132.88
2022-10-02T04:17:59.256Z,101131.19
2022-10-02T04:21:33.092Z,101133.09
2022-10-02T04:24:43.348Z,101127.88
2022-10-02T04:27:49.801Z,101139.66
2022-10-02T04:30:53.285Z,101135.13
2022-10-02T04:34:01.669Z,101140.81
2022-10-02T04:37:10.713Z,101137.16
2022-10-02T04:41:06.382Z,101147.41
2022-10-02T04:44:19.698Z,101139.38
2022-10-02T04:47:23.971Z,101143.44
2022-10-02T04:50:37.576Z,101141.63
2022-10-02T04:53:51.002Z,101139.31
2022-10-02T04:57:02.526Z,101150.19
2022-10-02T05:00:19.717Z,101151.03
2022-10-02T05:03:33.431Z,101154.53
2022-10-02T05:06:59.112Z,101151.47
2022-10-02T05:10:24.983Z,101150.06
2022-10-02T05:13:32.324Z,101151.94
2022-10-02T05:17:15.875Z,101156.44
2022-10-02T05:20:52.408Z,101155.75
2022-10-02T05:24:15.554Z,101161.69
2022-10-02T05:27:27.275Z,101160.72
2022-10-02T05:31:01.753Z,101166.50
2022-10-02T05:34:14.469Z,101176.63
2022-10-02T05:37:42.191Z,101184.72
2022-10-02T05:41:01.967Z,101204.00
2022-10-02T05:44:14.188Z,101222.34
2022-10-02T05:47:26.371Z,101221.94
2022-10-02T05:50:33.395Z,101210.41
2022-10-02T05:53:40.584Z,101198.13
2022-10-02T05:56:54.532Z,101183.47
2022-10-02T06:00:33.907Z,101155.06
2022-10-02T06:03:43.336Z,101179.09
2022-10-02T06:06:46.725Z,101194.63
2022-10-02T06:09:51.104Z,101175.38
2022-10-02T06:12:58.466Z,101173.38
2022-10-02T06:16:13.102Z,101163.03
2022-10-02T06:19:30.558Z,101161.34
2022-10-02T06:22:44.073Z,101165.47
2022-10-02T06:25:50.476Z,101168.69
2022-10-02T06:29:03.695Z,101179.44
2022-10-02T06:32:37.389Z,101196.75
2022-10-02T06:35:58.747Z,101205.09
2022-10-02T06:39:38.469Z,101216.06
2022-10-02T06:42:57.794Z,101218.22
2022-10-02T06:46:11.052Z,101215.28
2022-10-02T06:49:37.043Z,101224.38
2022-10-02T06:53:15.383Z,101227.41
2022-10-02T06:56:45.595Z,101241.38
2022-10-02T07:00:04.594Z,101247.91
2022-10-02T07:03:29.359Z,101254.56
2022-10-02T07:06:41.292Z,101261.25
2022-10-02T07:10:16.641Z,101267.13
2022-10-02T07:13:48.900Z,101271.59
2022-10-02T07:17:01.211Z,101287.19
2022-10-02T07:20:29.055Z,101290.53
2022-10-02T07:23:30.351Z,101288.03
2022-10-02T07:26:47.041Z,101276.66
2022-10-02T07:29:51.728Z,101290.13
2022-10-02T07:33:09.007Z,101295.88
2022-10-02T07:36:26.968Z,101286.69
2022-10-02T07:39:49.448Z,101292.56
2022-10-02T07:43:08.927Z,101289.88
2022-10-02T07:46:28.760Z,101283.31
2022-10-02T07:49:39.252Z,101286.22
2022-10-02T07:53:13.129Z,101290.63
2022-10-02T07:56:16.657Z,101301.28
2022-10-02T07:59:18.612Z,101296.38
2022-10-02T08:02:30.457Z,101302.91
2022-10-02T08:05:45.673Z,101304.84
2022-10-02T08:09:21.853Z,101303.13
2022-10-02T08:12:39.821Z,101302.72
2022-10-02T08:15:44.140Z,101311.00
2022-10-02T08:19:01.423Z,101309.03
2022-10-02T08:22:30.622Z,101309.31
2022-10-02T08:25:43.077Z,101304.75
2022-10-02T08:29:03.029Z,101312.22
2022-10-02T08:32:09.714Z,101331.91
2022-10-02T08:35:12.826Z,101329.19
2022-10-02T08:38:32.431Z,101355.00
2022-10-02T08:41:42.529Z,101337.50
2022-10-02T08:44:56.053Z,101355.31
2022-10-02T08:47:57.283Z,101367.84
2022-10-02T08:51:07.830Z,101363.28
2022-10-02T08:54:44.667Z,101369.44
2022-10-02T08:58:01.195Z,101369.81
2022-10-02T09:01:23.789Z,101381.19
2022-10-02T09:04:44.018Z,101373.34
2022-10-02T09:08:04.339Z,101380.03
2022-10-02T09:11:53.679Z,101377.06
2022-10-02T09:15:05.971Z,101383.50
2022-10-02T09:18:44.932Z,101396.69
2022-10-02T09:21:54.661Z,101394.56
2022-10-02T09:25:18.296Z,101388.41
2022-10-02T09:28:34.148Z,101394.34
2022-10-02T09:31:57.111Z,101400.38
2022-10-02T09:35:19.440Z,101393.66
2022-10-02T09:38:26.644Z,101387.69
2022-10-02T09:41:58.346Z,101388.53
2022-10-02T09:45:21.012Z,101387.69
2022-10-02T09:48:44.041Z,101388.81
2022-10-02T09:52:00.633Z,101384.91
2022-10-02T09:55:21.589Z,101387.88
2022-10-02T09:58:34.858Z,101383.34
2022-10-02T10:02:04.250Z,101378.47
2022-10-02T10:05:34.979Z,101379.25
2022-10-02T10:09:19.841Z,101383.91
2022-10-02T10:12:33.717Z,101384.53
2022-10-02T10:15:56.398Z,101385.53
2022-10-02T10:19:03.702Z,101386.28
2022-10-02T10:22:15.434Z,101389.38
2022-10-02T10:25:42.500Z,101380.78
2022-10-02T10:29:14.646Z,101388.31
2022-10-02T10:32:52.978Z,101390.91
2022-10-02T10:36:28.502Z,101389.53
2022-10-02T10:39:54.644Z,101385.78
2022-10-02T10:43:30.003Z,101384.28
2022-10-02T10:46:49.704Z,101392.22
2022-10-02T10:50:14.052Z,101390.03
2022-10-02T10:53:18.355Z,101402.88
2022-10-02T10:56:34.915Z,101411.75
2022-10-02T11:00:08.681Z,101406.84
2022-10-02T11:03:26.475Z,101405.31
2022-10-02T11:07:00.552Z,101411.69
2022-10-02T11:10:35.323Z,101422.13
2022-10-02T11:13:55.828Z,101446.34
2022-10-02T11:17:25.024Z,101454.22
2022-10-02T11:20:29.076Z,101447.09
2022-10-02T11:24:12.002Z,101453.00
2022-10-02T11:27:32.238Z,101441.81
2022-10-02T11:30:41.455Z,101440.75
2022-10-02T11:34:20.357Z,101434.38
2022-10-02T11:37:54.908Z,101432.50
2022-10-02T11:41:18.106Z,101431.59
2022-10-02T11:44:31.610Z,101432.84
2022-10-02T11:47:39.025Z,101433.28
2022-10-02T11:50:46.531Z,101456.47
2022-10-02T11:54:03.187Z,101451.59
2022-10-02T11:57:23.374Z,101446.09
2022-10-02T12:00:56.655Z,101457.34
2022-10-02T12:04:20.698Z,101457.72
2022-10-02T12:07:45.250Z,101471.16
2022-10-02T12:11:04.568Z,101477.66
2022-10-02T12:14:19.262Z,101469.81
2022-10-02T12:17:32.491Z,101471.56
2022-10-02T12:20:42.894Z,101468.31
2022-10-02T12:23:47.287Z,101462.47
2022-10-02T12:27:15.359Z,101461.81
2022-10-02T12:30:31.848Z,101459.78
2022-10-02T12:34:10.103Z,101466.84
2022-10-02T12:37:18.192Z,101464.41
2022-10-02T12:40:35.508Z,101473.59
2022-10-02T12:43:51.812Z,101473.84
2022-10-02T12:47:18.227Z,101472.63
2022-10-02T12:50:55.099Z,101467.41
2022-10-02T12:54:34.485Z,101476.00
2022-10-02T12:57:56.192Z,101484.09
2022-10-02T13:01:16.134Z,101481.25
2022-10-02T13:04:45.861Z,101488.94
2022-10-02T13:08:05.514Z,101485.78
2022-10-02T13:11:31.291Z,101478.63
2022-10-02T13:14:45.153Z,101483.06
2022-10-02T13:18:02.389Z,101477.16
2022-10-02T13:21:23.751Z,101485.50
2022-10-02T13:24:45.601Z,101503.13
2022-10-02T13:28:11.660Z,101504.03
2022-10-02T13:31:40.350Z,101502.50
2022-10-02T13:35:01.477Z,101504.91
2022-10-02T13:38:14.853Z,101510.44
2022-10-02T13:41:16.086Z,101510.47
2022-10-02T13:44:29.466Z,101520.25
2022-10-02T13:47:41.945Z,101524.84
2022-10-02T13:50:57.559Z,101530.94
2022-10-02T13:54:22.330Z,101531.84
2022-10-02T13:57:35.779Z,101537.59
2022-10-02T14:00:37.014Z,101537.94
2022-10-02T14:03:56.590Z,101536.19
2022-10-02T14:07:22.370Z,101529.78
2022-10-02T14:10:26.628Z,101540.78
2022-10-02T14:13:34.667Z,101535.28
2022-10-02T14:16:49.094Z,101538.28
2022-10-02T14:20:27.335Z,101541.28
2022-10-02T14:23:40.656Z,101549.31
2022-10-02T14:27:10.523Z,101547.09
2022-10-02T14:30:46.492Z,101544.00
2022-10-02T14:34:07.560Z,101549.91
2022-10-02T14:37:46.348Z,101551.41
2022-10-02T14:40:50.453Z,101545.22
2022-10-02T14:44:09.049Z,101549.84
2022-10-02T14:47:28.458Z,101555.94
2022-10-02T14:50:43.920Z,101555.88
2022-10-02T14:54:01.556Z,101570.25
2022-10-02T14:57:02.845Z,101558.53
2022-10-02T15:00:23.625Z,101570.88
2022-10-02T15:03:40.165Z,101574.69
2022-10-02T15:07:10.937Z,101578.22
2022-10-02T15:10:33.709Z,101578.69
2022-10-02T15:13:45.457Z,101584.97
2022-10-02T15:16:49.121Z,101586.75
2022-10-02T15:20:05.739Z,101592.22
2022-10-02T15:23:12.667Z,101595.09
2022-10-02T15:26:26.062Z,101596.38
2022-10-02T15:29:30.386Z,101603.81
2022-10-02T15:33:21.555Z,101598.91
2022-10-02T15:36:48.674Z,101607.13
2022-10-02T15:40:20.638Z,101601.81
2022-10-02T15:43:43.567Z,101616.09
2022-10-02T15:46:55.995Z,101626.66
2022-10-02T15:50:00.323Z,101634.66
2022-10-02T15:53:20.307Z,101635.63
2022-10-02T15:56:47.888Z,101639.63
2022-10-02T15:59:59.055Z,101639.63
2022-10-02T16:03:16.459Z,101650.19
2022-10-02T16:06:48.132Z,101654.03
2022-10-02T16:09:52.512Z,101660.25
2022-10-02T16:13:19.119Z,101658.03
2022-10-02T16:16:57.707Z,101660.94
2022-10-02T16:20:29.843Z,101670.06
2022-10-02T16:23:34.095Z,101672.09
2022-10-02T16:26:55.372Z,101663.06
2022-10-02T16:30:05.346Z,101675.31
2022-10-02T16:33:17.980Z,101678.31
2022-10-02T16:36:45.392Z,101686.34
2022-10-02T16:39:55.515Z,101689.31
2022-10-02T16:43:23.550Z,101704.28
2022-10-02T16:46:35.864Z,101701.00
2022-10-02T16:49:58.694Z,101707.28
2022-10-02T16:53:06.454Z,101708.34
2022-10-02T16:56:51.088Z,101719.91
2022-10-02T17:00:23.798Z,101732.28
2022-10-02T17:03:33.258Z,101739.22
2022-10-02T17:07:01.613Z,101741.22
2022-10-02T17:10:20.107Z,101749.38
2022-10-02T17:13:44.309Z,101746.09
2022-10-02T17:16:51.482Z,101751.66
2022-10-02T17:20:02.071Z,101756.25
2022-10-02T17:23:13.970Z,101761.50
2022-10-02T17:26:33.032Z,101761.81
2022-10-02T17:29:46.802Z,101774.16
2022-10-02T17:32:55.272Z,101777.84
2022-10-02T17:36:17.835Z,101787.63
2022-10-02T17:39:42.830Z,101795.63
2022-10-02T17:43:04.258Z,101799.22
2022-10-02T17:46:20.563Z,101811.50
2022-10-02T17:49:30.872Z,101815.84
2022-10-02T17:52:45.618Z,101817.75
2022-10-02T17:56:11.522Z,101830.22
2022-10-02T17:59:48.151Z,101827.09
2022-10-02T18:03:07.458Z,101827.91
2022-10-02T18:06:33.514Z,101840.09
2022-10-02T18:09:56.603Z,101844.50
2022-10-02T18:13:25.271Z,101848.19
2022-10-02T18:16:45.774Z,101845.50
2022-10-02T18:20:20.909Z,101856.00
2022-10-02T18:23:28.308Z,101858.53
2022-10-02T18:26:48.952Z,101863.59
2022-10-02T18:30:17.580Z,101862.53
2022-10-02T18:33:39.088Z,101866.00
2022-10-02T18:37:20.100Z,101872.00
2022-10-02T18:40:29.921Z,101881.31
2022-10-02T18:43:48.012Z,101883.28
2022-10-02T18:47:37.540Z,101887.06
2022-10-02T18:51:00.944Z,101890.50
2022-10-02T18:54:17.337Z,101886.94
2022-10-02T18:57:43.225Z,101883.59
2022-10-02T19:00:59.578Z,101894.00
2022-10-02T19:04:42.298Z,101892.34
2022-10-02T19:07:57.904Z,101899.22
2022-10-02T19:10:59.250Z,101906.06
2022-10-02T19:14:13.334Z,101905.84
2022-10-02T19:17:21.958Z,101916.75
2022-10-02T19:21:02.678Z,101911.63
2022-10-02T19:24:03.979Z,101917.44
2022-10-02T19:27:15.102Z,101917.25
2022-10-02T19:30:25.680Z,101922.19
2022-10-02T19:33:38.534Z,101923.72
2022-10-02T19:36:46.591Z,101919.41
2022-10-02T19:39:52.848Z,101933.00
2022-10-02T19:43:05.860Z,101933.66
2022-10-02T19:46:07.848Z,101937.16
2022-10-02T19:49:19.251Z,101938.34
2022-10-02T19:52:36.395Z,101941.34
2022-10-02T19:55:41.583Z,101943.22
2022-10-02T19:58:47.344Z,101951.13
2022-10-02T20:01:52.107Z,101955.66
2022-10-02T20:04:58.328Z,101950.63
2022-10-02T20:08:07.106Z,101960.06
2022-10-02T20:11:21.277Z,101958.22
2022-10-02T20:14:28.191Z,101963.28
2022-10-02T20:17:30.240Z,101972.81
2022-10-02T20:20:36.382Z,101980.69
2022-10-02T20:23:42.920Z,101980.75
2022-10-02T20:26:46.831Z,101979.91
2022-10-02T20:29:53.229Z,101977.31
2022-10-02T20:33:17.581Z,101983.63
2022-10-02T20:36:24.450Z,101983.63
2022-10-02T20:39:32.257Z,101985.34
2022-10-02T20:42:40.885Z,101991.34
2022-10-02T20:45:50.286Z,101989.75
2022-10-02T20:49:18.025Z,101999.56
2022-10-02T20:52:49.238Z,102005.84
2022-10-02T20:56:13.342Z,102002.56
2022-10-02T20:59:29.914Z,102011.28
2022-10-02T21:02:58.083Z,102006.25
2022-10-02T21:06:11.522Z,102014.72
2022-10-02T21:10:10.110Z,102017.13
2022-10-02T21:13:22.543Z,102017.66
2022-10-02T21:16:45.517Z,102015.59
2022-10-02T21:20:33.165Z,102017.19
2022-10-02T21:24:07.423Z,102021.34
2022-10-02T21:27:58.090Z,102024.03
2022-10-02T21:31:22.457Z,102031.91
2022-10-02T21:34:58.875Z,102027.94
2022-10-02T21:38:30.509Z,102031.69
2022-10-02T21:41:58.072Z,102032.84
2022-10-02T21:45:01.894Z,102036.47
2022-10-02T21:48:39.799Z,102041.88
2022-10-02T21:52:08.227Z,102043.03
2022-10-02T21:55:46.684Z,102049.28
2022-10-02T21:59:06.704Z,102046.84
2022-10-02T22:02:25.954Z,102056.56
2022-10-02T22:06:00.034Z,102051.66
2022-10-02T22:09:25.693Z,102066.38
2022-10-02T22:12:54.553Z,102070.66
2022-10-02T22:16:10.856Z,102068.97
2022-10-02T22:19:38.575Z,102076.75
2022-10-02T22:22:59.458Z,102085.22
2022-10-02T22:26:36.242Z,102093.88
2022-10-02T22:29:48.191Z,102099.03
2022-10-02T22:33:09.130Z,102101.69
2022-10-02T22:36:32.189Z,102102.72
2022-10-02T22:39:40.654Z,102106.94
2022-10-02T22:42:48.801Z,102113.06
2022-10-02T22:46:09.238Z,102110.63
2022-10-02T22:49:20.793Z,102110.75
2022-10-02T22:52:33.171Z,102115.09
2022-10-02T22:55:44.586Z,102112.56
2022-10-02T22:58:56.830Z,102115.25
2022-10-02T23:02:06.240Z,102122.22
2022-10-02T23:05:27.565Z,102122.25
2022-10-02T23:08:56.845Z,102126.41
2022-10-02T23:12:12.286Z,102124.59
2022-10-02T23:15:28.086Z,102133.00
2022-10-02T23:19:02.330Z,102127.66
2022-10-02T23:22:08.071Z,102127.59
2022-10-02T23:25:22.478Z,102134.56
2022-10-02T23:28:26.827Z,102126.91
2022-10-02T23:31:35.310Z,102134.69
2022-10-02T23:34:46.079Z,102133.88
2022-10-02T23:37:55.504Z,102139.03
2022-10-02T23:41:16.119Z,102139.13
2022-10-02T23:44:43.202Z,102144.50
2022-10-02T23:47:50.484Z,102147.09
2022-10-02T23:51:16.829Z,102160.97
2022-10-02T23:54:24.232Z,102165.19
2022-10-02T23:57:31.625Z,102167.03
